sensor_id;sensor_type;location;lat;lon;timestamp;P1;durP1;ratioP1;P2;durP2;ratioP2
52104;SDS011;38103;42.776;23.112;2022-10-26T00:01:10;23.05;;;7.30;;
52104;SDS011;38103;42.776;23.112;2022-10-26T00:03:38;25.98;;;8.30;;
52104;SDS011;38103;42.776;23.112;2022-10-26T00:06:08;17.15;;;7.28;;
52104;SDS011;38103;42.776;23.112;2022-10-26T00:08:35;20.30;;;7.22;;
52104;SDS011;38103;42.776;23.112;2022-10-26T00:11:02;21.92;;;7.68;;
52104;SDS011;38103;42.776;23.112;2022-10-26T00:13:27;20.63;;;7.43;;
52104;SDS011;38103;42.776;23.112;2022-10-26T00:15:53;19.92;;;7.68;;
52104;SDS011;38103;42.776;23.112;2022-10-26T00:18:19;20.45;;;6.95;;
52104;SDS011;38103;42.776;23.112;2022-10-26T00:20:44;20.80;;;7.50;;
52104;SDS011;38103;42.776;23.112;2022-10-26T00:23:10;19.20;;;7.60;;
52104;SDS011;38103;42.776;23.112;2022-10-26T00:25:35;19.13;;;7.32;;
52104;SDS011;38103;42.776;23.112;2022-10-26T00:28:00;16.98;;;7.60;;
52104;SDS011;38103;42.776;23.112;2022-10-26T00:30:26;16.80;;;7.40;;
52104;SDS011;38103;42.776;23.112;2022-10-26T00:32:51;21.10;;;7.78;;
52104;SDS011;38103;42.776;23.112;2022-10-26T00:35:17;18.98;;;7.15;;
52104;SDS011;38103;42.776;23.112;2022-10-26T00:37:42;20.75;;;8.32;;
52104;SDS011;38103;42.776;23.112;2022-10-26T00:40:08;16.77;;;7.05;;
52104;SDS011;38103;42.776;23.112;2022-10-26T00:42:33;16.85;;;6.68;;
52104;SDS011;38103;42.776;23.112;2022-10-26T00:45:00;20.08;;;8.65;;
52104;SDS011;38103;42.776;23.112;2022-10-26T00:50:19;20.50;;;7.30;;
52104;SDS011;38103;42.776;23.112;2022-10-26T00:52:50;18.10;;;6.90;;
52104;SDS011;38103;42.776;23.112;2022-10-26T00:55:17;16.02;;;7.38;;
52104;SDS011;38103;42.776;23.112;2022-10-26T00:57:45;20.20;;;7.95;;
52104;SDS011;38103;42.776;23.112;2022-10-26T01:00:13;19.35;;;7.38;;
52104;SDS011;38103;42.776;23.112;2022-10-26T01:02:39;18.25;;;7.15;;
52104;SDS011;38103;42.776;23.112;2022-10-26T01:05:05;18.35;;;7.00;;
52104;SDS011;38103;42.776;23.112;2022-10-26T01:07:31;18.10;;;7.28;;
52104;SDS011;38103;42.776;23.112;2022-10-26T01:09:58;19.67;;;6.90;;
52104;SDS011;38103;42.776;23.112;2022-10-26T01:12:24;19.08;;;7.13;;
52104;SDS011;38103;42.776;23.112;2022-10-26T01:14:50;18.85;;;7.22;;
52104;SDS011;38103;42.776;23.112;2022-10-26T01:27:46;23.23;;;7.05;;
52104;SDS011;38103;42.776;23.112;2022-10-26T01:36:30;21.25;;;7.43;;
52104;SDS011;38103;42.776;23.112;2022-10-26T01:41:15;20.33;;;7.05;;
52104;SDS011;38103;42.776;23.112;2022-10-26T01:43:48;20.38;;;6.90;;
52104;SDS011;38103;42.776;23.112;2022-10-26T01:46:21;19.05;;;7.43;;
52104;SDS011;38103;42.776;23.112;2022-10-26T01:48:49;19.83;;;6.82;;
52104;SDS011;38103;42.776;23.112;2022-10-26T01:51:18;20.17;;;8.13;;
52104;SDS011;38103;42.776;23.112;2022-10-26T01:53:45;19.00;;;6.60;;
52104;SDS011;38103;42.776;23.112;2022-10-26T01:56:30;21.98;;;7.72;;
52104;SDS011;38103;42.776;23.112;2022-10-26T01:59:48;16.90;;;6.85;;
52104;SDS011;38103;42.776;23.112;2022-10-26T02:10:10;16.95;;;6.30;;
52104;SDS011;38103;42.776;23.112;2022-10-26T02:20:58;13.80;;;6.25;;
52104;SDS011;38103;42.776;23.112;2022-10-26T02:23:28;18.10;;;6.75;;
52104;SDS011;38103;42.776;23.112;2022-10-26T02:25:57;15.82;;;6.45;;
52104;SDS011;38103;42.776;23.112;2022-10-26T02:28:27;16.27;;;6.75;;
52104;SDS011;38103;42.776;23.112;2022-10-26T02:30:57;16.67;;;6.88;;
52104;SDS011;38103;42.776;23.112;2022-10-26T02:33:25;18.25;;;7.35;;
52104;SDS011;38103;42.776;23.112;2022-10-26T02:35:55;17.05;;;6.82;;
52104;SDS011;38103;42.776;23.112;2022-10-26T02:38:24;20.98;;;6.90;;
52104;SDS011;38103;42.776;23.112;2022-10-26T02:40:52;16.08;;;7.50;;
52104;SDS011;38103;42.776;23.112;2022-10-26T02:43:20;21.98;;;7.40;;
52104;SDS011;38103;42.776;23.112;2022-10-26T02:45:50;19.67;;;7.47;;
52104;SDS011;38103;42.776;23.112;2022-10-26T02:48:20;25.38;;;7.55;;
52104;SDS011;38103;42.776;23.112;2022-10-26T02:50:52;19.52;;;7.63;;
52104;SDS011;38103;42.776;23.112;2022-10-26T02:53:25;21.15;;;8.27;;
52104;SDS011;38103;42.776;23.112;2022-10-26T02:55:54;21.55;;;8.30;;
52104;SDS011;38103;42.776;23.112;2022-10-26T02:58:22;20.27;;;8.13;;
52104;SDS011;38103;42.776;23.112;2022-10-26T03:00:52;18.45;;;8.05;;
52104;SDS011;38103;42.776;23.112;2022-10-26T03:03:18;16.73;;;7.63;;
52104;SDS011;38103;42.776;23.112;2022-10-26T03:05:44;22.67;;;8.50;;
52104;SDS011;38103;42.776;23.112;2022-10-26T03:08:10;17.85;;;7.75;;
52104;SDS011;38103;42.776;23.112;2022-10-26T03:10:37;21.42;;;8.20;;
52104;SDS011;38103;42.776;23.112;2022-10-26T03:13:06;20.27;;;8.18;;
52104;SDS011;38103;42.776;23.112;2022-10-26T03:15:31;20.80;;;8.23;;
52104;SDS011;38103;42.776;23.112;2022-10-26T03:17:57;22.90;;;8.10;;
52104;SDS011;38103;42.776;23.112;2022-10-26T03:20:22;24.70;;;8.55;;
52104;SDS011;38103;42.776;23.112;2022-10-26T03:22:47;22.88;;;7.63;;
52104;SDS011;38103;42.776;23.112;2022-10-26T03:25:13;17.25;;;7.95;;
52104;SDS011;38103;42.776;23.112;2022-10-26T03:27:39;20.45;;;7.75;;
52104;SDS011;38103;42.776;23.112;2022-10-26T03:30:05;19.85;;;8.27;;
52104;SDS011;38103;42.776;23.112;2022-10-26T03:32:31;16.75;;;7.63;;
52104;SDS011;38103;42.776;23.112;2022-10-26T03:34:57;19.20;;;8.60;;
52104;SDS011;38103;42.776;23.112;2022-10-26T03:37:22;15.55;;;7.35;;
52104;SDS011;38103;42.776;23.112;2022-10-26T03:39:47;19.20;;;7.40;;
52104;SDS011;38103;42.776;23.112;2022-10-26T03:42:13;19.42;;;7.35;;
52104;SDS011;38103;42.776;23.112;2022-10-26T03:44:38;22.95;;;8.18;;
52104;SDS011;38103;42.776;23.112;2022-10-26T03:47:03;18.48;;;7.68;;
52104;SDS011;38103;42.776;23.112;2022-10-26T03:49:29;16.95;;;7.90;;
52104;SDS011;38103;42.776;23.112;2022-10-26T03:51:54;21.02;;;8.07;;
52104;SDS011;38103;42.776;23.112;2022-10-26T03:54:20;23.50;;;7.85;;
52104;SDS011;38103;42.776;23.112;2022-10-26T03:56:45;23.88;;;7.93;;
52104;SDS011;38103;42.776;23.112;2022-10-26T03:59:10;23.85;;;10.00;;
52104;SDS011;38103;42.776;23.112;2022-10-26T04:01:36;19.77;;;8.63;;
52104;SDS011;38103;42.776;23.112;2022-10-26T04:04:01;19.55;;;8.80;;
52104;SDS011;38103;42.776;23.112;2022-10-26T04:06:26;21.45;;;8.85;;
52104;SDS011;38103;42.776;23.112;2022-10-26T04:08:52;19.35;;;8.75;;
52104;SDS011;38103;42.776;23.112;2022-10-26T04:11:22;25.70;;;8.80;;
52104;SDS011;38103;42.776;23.112;2022-10-26T04:13:47;18.25;;;8.35;;
52104;SDS011;38103;42.776;23.112;2022-10-26T04:16:13;22.60;;;8.70;;
52104;SDS011;38103;42.776;23.112;2022-10-26T04:18:38;20.27;;;9.32;;
52104;SDS011;38103;42.776;23.112;2022-10-26T04:21:03;21.77;;;9.57;;
52104;SDS011;38103;42.776;23.112;2022-10-26T04:23:29;20.75;;;9.10;;
52104;SDS011;38103;42.776;23.112;2022-10-26T04:25:54;18.77;;;9.02;;
52104;SDS011;38103;42.776;23.112;2022-10-26T04:28:20;20.08;;;8.80;;
52104;SDS011;38103;42.776;23.112;2022-10-26T04:30:46;23.23;;;9.52;;
52104;SDS011;38103;42.776;23.112;2022-10-26T04:33:12;22.08;;;9.38;;
52104;SDS011;38103;42.776;23.112;2022-10-26T04:35:37;23.80;;;9.18;;
52104;SDS011;38103;42.776;23.112;2022-10-26T04:38:03;18.67;;;8.80;;
52104;SDS011;38103;42.776;23.112;2022-10-26T04:40:31;17.75;;;8.45;;
52104;SDS011;38103;42.776;23.112;2022-10-26T04:42:57;19.83;;;8.60;;
52104;SDS011;38103;42.776;23.112;2022-10-26T04:45:23;23.02;;;9.00;;
52104;SDS011;38103;42.776;23.112;2022-10-26T04:48:09;20.80;;;9.07;;
52104;SDS011;38103;42.776;23.112;2022-10-26T04:50:36;21.67;;;9.02;;
52104;SDS011;38103;42.776;23.112;2022-10-26T04:53:02;21.83;;;8.50;;
52104;SDS011;38103;42.776;23.112;2022-10-26T04:55:28;21.02;;;8.85;;
52104;SDS011;38103;42.776;23.112;2022-10-26T04:57:54;18.60;;;8.55;;
52104;SDS011;38103;42.776;23.112;2022-10-26T05:00:19;18.40;;;8.55;;
52104;SDS011;38103;42.776;23.112;2022-10-26T05:02:44;20.80;;;8.68;;
52104;SDS011;38103;42.776;23.112;2022-10-26T05:05:10;21.30;;;7.85;;
52104;SDS011;38103;42.776;23.112;2022-10-26T05:07:35;19.25;;;7.95;;
52104;SDS011;38103;42.776;23.112;2022-10-26T05:10:01;20.23;;;8.30;;
52104;SDS011;38103;42.776;23.112;2022-10-26T05:12:26;18.95;;;8.70;;
52104;SDS011;38103;42.776;23.112;2022-10-26T05:14:51;17.23;;;8.00;;
52104;SDS011;38103;42.776;23.112;2022-10-26T05:17:17;17.20;;;7.85;;
52104;SDS011;38103;42.776;23.112;2022-10-26T05:19:42;19.55;;;8.30;;
52104;SDS011;38103;42.776;23.112;2022-10-26T05:22:07;16.92;;;8.10;;
52104;SDS011;38103;42.776;23.112;2022-10-26T05:24:33;17.77;;;8.32;;
52104;SDS011;38103;42.776;23.112;2022-10-26T05:26:58;18.95;;;8.02;;
52104;SDS011;38103;42.776;23.112;2022-10-26T05:29:24;19.10;;;8.15;;
52104;SDS011;38103;42.776;23.112;2022-10-26T05:31:49;16.23;;;7.20;;
52104;SDS011;38103;42.776;23.112;2022-10-26T05:34:15;16.83;;;7.28;;
52104;SDS011;38103;42.776;23.112;2022-10-26T05:36:41;18.83;;;7.20;;
52104;SDS011;38103;42.776;23.112;2022-10-26T05:39:06;18.88;;;7.35;;
52104;SDS011;38103;42.776;23.112;2022-10-26T05:41:32;18.42;;;6.95;;
52104;SDS011;38103;42.776;23.112;2022-10-26T05:43:57;17.00;;;7.32;;
52104;SDS011;38103;42.776;23.112;2022-10-26T05:46:22;16.45;;;6.82;;
52104;SDS011;38103;42.776;23.112;2022-10-26T05:48:48;18.10;;;7.50;;
52104;SDS011;38103;42.776;23.112;2022-10-26T05:51:13;16.33;;;7.10;;
52104;SDS011;38103;42.776;23.112;2022-10-26T05:53:39;16.23;;;6.68;;
52104;SDS011;38103;42.776;23.112;2022-10-26T05:56:12;15.82;;;6.40;;
52104;SDS011;38103;42.776;23.112;2022-10-26T05:58:45;13.65;;;6.18;;
52104;SDS011;38103;42.776;23.112;2022-10-26T06:01:27;16.08;;;6.00;;
52104;SDS011;38103;42.776;23.112;2022-10-26T06:06:52;15.98;;;6.05;;
52104;SDS011;38103;42.776;23.112;2022-10-26T06:09:18;13.07;;;6.55;;
52104;SDS011;38103;42.776;23.112;2022-10-26T06:11:45;15.13;;;6.70;;
52104;SDS011;38103;42.776;23.112;2022-10-26T06:14:10;16.95;;;6.45;;
52104;SDS011;38103;42.776;23.112;2022-10-26T06:16:57;21.27;;;6.05;;
52104;SDS011;38103;42.776;23.112;2022-10-26T06:25:40;16.02;;;6.18;;
52104;SDS011;38103;42.776;23.112;2022-10-26T06:28:13;15.10;;;5.90;;
52104;SDS011;38103;42.776;23.112;2022-10-26T06:30:53;18.42;;;6.03;;
52104;SDS011;38103;42.776;23.112;2022-10-26T06:33:19;17.38;;;5.55;;
52104;SDS011;38103;42.776;23.112;2022-10-26T06:35:55;12.80;;;5.07;;
52104;SDS011;38103;42.776;23.112;2022-10-26T06:38:43;13.50;;;4.88;;
52104;SDS011;38103;42.776;23.112;2022-10-26T06:41:09;13.02;;;5.47;;
52104;SDS011;38103;42.776;23.112;2022-10-26T06:43:39;12.63;;;4.82;;
52104;SDS011;38103;42.776;23.112;2022-10-26T06:52:02;12.18;;;4.57;;
52104;SDS011;38103;42.776;23.112;2022-10-26T06:57:13;13.65;;;5.35;;
52104;SDS011;38103;42.776;23.112;2022-10-26T06:59:52;14.05;;;5.18;;
52104;SDS011;38103;42.776;23.112;2022-10-26T07:02:20;17.95;;;6.28;;
52104;SDS011;38103;42.776;23.112;2022-10-26T07:04:46;12.48;;;4.90;;
52104;SDS011;38103;42.776;23.112;2022-10-26T07:07:13;11.93;;;4.20;;
52104;SDS011;38103;42.776;23.112;2022-10-26T07:09:43;12.70;;;4.60;;
52104;SDS011;38103;42.776;23.112;2022-10-26T07:12:08;13.75;;;4.80;;
52104;SDS011;38103;42.776;23.112;2022-10-26T07:14:34;16.20;;;5.40;;
52104;SDS011;38103;42.776;23.112;2022-10-26T07:16:59;12.48;;;4.50;;
52104;SDS011;38103;42.776;23.112;2022-10-26T07:19:25;11.25;;;4.20;;
52104;SDS011;38103;42.776;23.112;2022-10-26T07:21:52;11.95;;;4.20;;
52104;SDS011;38103;42.776;23.112;2022-10-26T07:24:20;11.35;;;4.45;;
52104;SDS011;38103;42.776;23.112;2022-10-26T07:26:46;10.52;;;3.80;;
52104;SDS011;38103;42.776;23.112;2022-10-26T07:29:11;11.85;;;4.50;;
52104;SDS011;38103;42.776;23.112;2022-10-26T07:31:38;12.27;;;4.03;;
52104;SDS011;38103;42.776;23.112;2022-10-26T07:34:03;10.13;;;3.72;;
52104;SDS011;38103;42.776;23.112;2022-10-26T07:36:29;11.38;;;3.70;;
52104;SDS011;38103;42.776;23.112;2022-10-26T07:38:54;12.90;;;4.43;;
52104;SDS011;38103;42.776;23.112;2022-10-26T07:41:19;10.38;;;3.75;;
52104;SDS011;38103;42.776;23.112;2022-10-26T07:43:45;11.20;;;3.83;;
52104;SDS011;38103;42.776;23.112;2022-10-26T07:46:13;14.35;;;4.38;;
52104;SDS011;38103;42.776;23.112;2022-10-26T07:48:40;10.98;;;3.33;;
52104;SDS011;38103;42.776;23.112;2022-10-26T07:51:06;11.00;;;3.65;;
52104;SDS011;38103;42.776;23.112;2022-10-26T07:53:31;12.57;;;3.50;;
52104;SDS011;38103;42.776;23.112;2022-10-26T07:55:57;9.13;;;3.40;;
52104;SDS011;38103;42.776;23.112;2022-10-26T07:58:22;10.10;;;3.60;;
52104;SDS011;38103;42.776;23.112;2022-10-26T08:00:50;10.48;;;3.67;;
52104;SDS011;38103;42.776;23.112;2022-10-26T08:03:16;14.05;;;4.28;;
52104;SDS011;38103;42.776;23.112;2022-10-26T08:05:44;11.10;;;3.30;;
52104;SDS011;38103;42.776;23.112;2022-10-26T08:08:11;9.13;;;3.35;;
52104;SDS011;38103;42.776;23.112;2022-10-26T08:10:40;9.05;;;2.65;;
52104;SDS011;38103;42.776;23.112;2022-10-26T08:13:07;8.75;;;3.00;;
52104;SDS011;38103;42.776;23.112;2022-10-26T08:15:32;9.93;;;2.90;;
52104;SDS011;38103;42.776;23.112;2022-10-26T08:17:57;12.63;;;2.92;;
52104;SDS011;38103;42.776;23.112;2022-10-26T08:20:23;8.57;;;2.90;;
52104;SDS011;38103;42.776;23.112;2022-10-26T08:22:48;8.50;;;2.88;;
52104;SDS011;38103;42.776;23.112;2022-10-26T08:25:13;10.52;;;2.90;;
52104;SDS011;38103;42.776;23.112;2022-10-26T08:27:39;11.80;;;3.03;;
52104;SDS011;38103;42.776;23.112;2022-10-26T08:30:04;9.27;;;2.80;;
52104;SDS011;38103;42.776;23.112;2022-10-26T08:32:30;10.57;;;2.92;;
52104;SDS011;38103;42.776;23.112;2022-10-26T08:34:55;9.27;;;2.80;;
52104;SDS011;38103;42.776;23.112;2022-10-26T08:37:21;12.23;;;3.08;;
52104;SDS011;38103;42.776;23.112;2022-10-26T08:39:46;11.45;;;3.13;;
52104;SDS011;38103;42.776;23.112;2022-10-26T08:42:13;12.07;;;3.10;;
52104;SDS011;38103;42.776;23.112;2022-10-26T08:44:46;11.85;;;3.05;;
52104;SDS011;38103;42.776;23.112;2022-10-26T08:47:17;9.68;;;2.67;;
52104;SDS011;38103;42.776;23.112;2022-10-26T08:52:23;7.82;;;2.60;;
52104;SDS011;38103;42.776;23.112;2022-10-26T08:54:55;12.10;;;2.90;;
52104;SDS011;38103;42.776;23.112;2022-10-26T08:57:25;10.63;;;2.80;;
52104;SDS011;38103;42.776;23.112;2022-10-26T09:02:22;11.18;;;2.90;;
52104;SDS011;38103;42.776;23.112;2022-10-26T09:04:48;8.02;;;2.30;;
52104;SDS011;38103;42.776;23.112;2022-10-26T09:15:13;9.77;;;2.35;;
52104;SDS011;38103;42.776;23.112;2022-10-26T09:23:21;9.38;;;2.60;;
52104;SDS011;38103;42.776;23.112;2022-10-26T09:26:08;8.93;;;2.58;;
52104;SDS011;38103;42.776;23.112;2022-10-26T09:28:43;9.18;;;2.30;;
52104;SDS011;38103;42.776;23.112;2022-10-26T09:31:12;9.13;;;2.50;;
52104;SDS011;38103;42.776;23.112;2022-10-26T09:33:40;8.98;;;2.60;;
52104;SDS011;38103;42.776;23.112;2022-10-26T09:36:06;8.50;;;2.60;;
52104;SDS011;38103;42.776;23.112;2022-10-26T09:41:27;8.80;;;2.35;;
52104;SDS011;38103;42.776;23.112;2022-10-26T09:49:48;8.45;;;2.30;;
52104;SDS011;38103;42.776;23.112;2022-10-26T09:52:18;8.57;;;2.63;;
52104;SDS011;38103;42.776;23.112;2022-10-26T09:54:44;8.80;;;2.40;;
52104;SDS011;38103;42.776;23.112;2022-10-26T09:57:11;9.18;;;2.55;;
52104;SDS011;38103;42.776;23.112;2022-10-26T09:59:40;6.57;;;2.13;;
52104;SDS011;38103;42.776;23.112;2022-10-26T10:04:56;9.05;;;2.47;;
52104;SDS011;38103;42.776;23.112;2022-10-26T10:07:22;6.50;;;2.33;;
52104;SDS011;38103;42.776;23.112;2022-10-26T10:10:04;8.00;;;2.10;;
52104;SDS011;38103;42.776;23.112;2022-10-26T10:12:31;9.60;;;2.67;;
52104;SDS011;38103;42.776;23.112;2022-10-26T10:14:57;8.20;;;2.20;;
52104;SDS011;38103;42.776;23.112;2022-10-26T10:17:23;7.82;;;2.63;;
52104;SDS011;38103;42.776;23.112;2022-10-26T10:19:49;6.40;;;2.20;;
52104;SDS011;38103;42.776;23.112;2022-10-26T10:27:28;9.40;;;2.15;;
52104;SDS011;38103;42.776;23.112;2022-10-26T10:29:56;5.97;;;2.05;;
52104;SDS011;38103;42.776;23.112;2022-10-26T10:32:37;8.95;;;2.17;;
52104;SDS011;38103;42.776;23.112;2022-10-26T10:35:03;8.18;;;2.40;;
52104;SDS011;38103;42.776;23.112;2022-10-26T10:37:46;5.47;;;1.80;;
52104;SDS011;38103;42.776;23.112;2022-10-26T10:40:19;6.82;;;2.10;;
52104;SDS011;38103;42.776;23.112;2022-10-26T10:42:46;5.30;;;1.90;;
52104;SDS011;38103;42.776;23.112;2022-10-26T10:45:20;8.07;;;2.00;;
52104;SDS011;38103;42.776;23.112;2022-10-26T10:48:49;6.65;;;1.92;;
52104;SDS011;38103;42.776;23.112;2022-10-26T10:50:52;5.07;;;1.80;;
52104;SDS011;38103;42.776;23.112;2022-10-26T10:58:34;13.48;;;2.10;;
52104;SDS011;38103;42.776;23.112;2022-10-26T11:01:04;4.88;;;1.73;;
52104;SDS011;38103;42.776;23.112;2022-10-26T11:06:24;5.32;;;1.88;;
52104;SDS011;38103;42.776;23.112;2022-10-26T11:14:09;3.67;;;1.60;;
52104;SDS011;38103;42.776;23.112;2022-10-26T11:16:42;5.40;;;1.80;;
52104;SDS011;38103;42.776;23.112;2022-10-26T11:19:19;5.88;;;1.70;;
52104;SDS011;38103;42.776;23.112;2022-10-26T11:21:57;4.88;;;1.70;;
52104;SDS011;38103;42.776;23.112;2022-10-26T11:24:27;6.00;;;1.80;;
52104;SDS011;38103;42.776;23.112;2022-10-26T11:27:17;4.47;;;1.60;;
52104;SDS011;38103;42.776;23.112;2022-10-26T11:29:53;5.07;;;1.80;;
52104;SDS011;38103;42.776;23.112;2022-10-26T11:32:27;6.68;;;1.80;;
52104;SDS011;38103;42.776;23.112;2022-10-26T11:35:04;7.53;;;2.00;;
52104;SDS011;38103;42.776;23.112;2022-10-26T11:37:42;2.55;;;1.38;;
52104;SDS011;38103;42.776;23.112;2022-10-26T11:40:22;5.93;;;1.73;;
52104;SDS011;38103;42.776;23.112;2022-10-26T11:42:59;3.50;;;1.70;;
52104;SDS011;38103;42.776;23.112;2022-10-26T11:45:41;7.38;;;1.60;;
52104;SDS011;38103;42.776;23.112;2022-10-26T11:48:11;3.85;;;1.58;;
52104;SDS011;38103;42.776;23.112;2022-10-26T11:53:52;18.77;;;5.22;;
52104;SDS011;38103;42.776;23.112;2022-10-26T11:56:53;8.50;;;2.08;;
52104;SDS011;38103;42.776;23.112;2022-10-26T11:59:02;2.83;;;1.25;;
52104;SDS011;38103;42.776;23.112;2022-10-26T12:01:29;5.55;;;1.60;;
52104;SDS011;38103;42.776;23.112;2022-10-26T12:03:57;4.93;;;1.75;;
52104;SDS011;38103;42.776;23.112;2022-10-26T12:06:26;4.20;;;1.70;;
52104;SDS011;38103;42.776;23.112;2022-10-26T12:11:37;4.55;;;1.70;;
52104;SDS011;38103;42.776;23.112;2022-10-26T12:16:49;10.48;;;2.00;;
52104;SDS011;38103;42.776;23.112;2022-10-26T12:19:53;4.15;;;1.38;;
52104;SDS011;38103;42.776;23.112;2022-10-26T12:22:25;4.63;;;1.60;;
52104;SDS011;38103;42.776;23.112;2022-10-26T12:25:17;2.10;;;1.10;;
52104;SDS011;38103;42.776;23.112;2022-10-26T12:40:48;5.97;;;1.80;;
52104;SDS011;38103;42.776;23.112;2022-10-26T12:43:38;9.70;;;2.60;;
52104;SDS011;38103;42.776;23.112;2022-10-26T12:48:40;8.25;;;2.20;;
52104;SDS011;38103;42.776;23.112;2022-10-26T12:54:08;7.32;;;1.98;;
52104;SDS011;38103;42.776;23.112;2022-10-26T12:57:01;5.30;;;1.50;;
52104;SDS011;38103;42.776;23.112;2022-10-26T13:02:38;48.55;;;4.93;;
52104;SDS011;38103;42.776;23.112;2022-10-26T13:07:36;24.80;;;2.08;;
52104;SDS011;38103;42.776;23.112;2022-10-26T13:15:04;6.38;;;1.90;;
52104;SDS011;38103;42.776;23.112;2022-10-26T13:17:43;7.10;;;2.00;;
52104;SDS011;38103;42.776;23.112;2022-10-26T13:20:19;9.32;;;2.10;;
52104;SDS011;38103;42.776;23.112;2022-10-26T13:22:45;7.60;;;1.95;;
52104;SDS011;38103;42.776;23.112;2022-10-26T13:25:24;7.80;;;2.45;;
52104;SDS011;38103;42.776;23.112;2022-10-26T13:28:03;9.57;;;2.30;;
52104;SDS011;38103;42.776;23.112;2022-10-26T13:33:22;8.20;;;2.15;;
52104;SDS011;38103;42.776;23.112;2022-10-26T13:35:51;8.05;;;2.00;;
52104;SDS011;38103;42.776;23.112;2022-10-26T13:38:21;6.90;;;2.00;;
52104;SDS011;38103;42.776;23.112;2022-10-26T13:40:48;8.13;;;2.10;;
52104;SDS011;38103;42.776;23.112;2022-10-26T13:43:20;9.82;;;2.30;;
52104;SDS011;38103;42.776;23.112;2022-10-26T13:45:49;7.22;;;2.10;;
52104;SDS011;38103;42.776;23.112;2022-10-26T13:48:52;5.75;;;2.00;;
52104;SDS011;38103;42.776;23.112;2022-10-26T13:58:51;12.98;;;2.47;;
52104;SDS011;38103;42.776;23.112;2022-10-26T14:01:27;8.80;;;1.83;;
52104;SDS011;38103;42.776;23.112;2022-10-26T14:03:54;10.25;;;2.08;;
52104;SDS011;38103;42.776;23.112;2022-10-26T14:06:36;10.95;;;2.05;;
52104;SDS011;38103;42.776;23.112;2022-10-26T14:09:04;8.75;;;2.20;;
52104;SDS011;38103;42.776;23.112;2022-10-26T14:11:41;8.93;;;2.20;;
52104;SDS011;38103;42.776;23.112;2022-10-26T14:14:13;8.73;;;1.77;;
52104;SDS011;38103;42.776;23.112;2022-10-26T14:16:44;8.65;;;1.88;;
52104;SDS011;38103;42.776;23.112;2022-10-26T14:19:19;8.00;;;2.00;;
52104;SDS011;38103;42.776;23.112;2022-10-26T14:21:50;10.05;;;1.90;;
52104;SDS011;38103;42.776;23.112;2022-10-26T14:24:20;9.18;;;2.10;;
52104;SDS011;38103;42.776;23.112;2022-10-26T14:26:47;5.00;;;1.88;;
52104;SDS011;38103;42.776;23.112;2022-10-26T14:29:16;6.88;;;2.85;;
52104;SDS011;38103;42.776;23.112;2022-10-26T14:31:44;5.45;;;1.90;;
52104;SDS011;38103;42.776;23.112;2022-10-26T14:34:10;11.85;;;2.42;;
52104;SDS011;38103;42.776;23.112;2022-10-26T14:39:32;9.27;;;2.03;;
52104;SDS011;38103;42.776;23.112;2022-10-26T14:42:23;5.40;;;1.90;;
52104;SDS011;38103;42.776;23.112;2022-10-26T14:44:52;5.93;;;1.90;;
52104;SDS011;38103;42.776;23.112;2022-10-26T14:47:27;11.88;;;2.42;;
52104;SDS011;38103;42.776;23.112;2022-10-26T14:49:54;14.35;;;2.40;;
52104;SDS011;38103;42.776;23.112;2022-10-26T14:52:22;14.38;;;3.15;;
52104;SDS011;38103;42.776;23.112;2022-10-26T14:57:42;21.10;;;2.58;;
52104;SDS011;38103;42.776;23.112;2022-10-26T15:00:24;20.60;;;2.72;;
52104;SDS011;38103;42.776;23.112;2022-10-26T15:02:56;8.52;;;2.38;;
52104;SDS011;38103;42.776;23.112;2022-10-26T15:07:48;14.98;;;2.20;;
52104;SDS011;38103;42.776;23.112;2022-10-26T15:13:07;18.77;;;3.25;;
52104;SDS011;38103;42.776;23.112;2022-10-26T15:15:49;16.98;;;2.78;;
52104;SDS011;38103;42.776;23.112;2022-10-26T15:20:49;8.85;;;2.33;;
52104;SDS011;38103;42.776;23.112;2022-10-26T15:23:15;11.25;;;2.10;;
52104;SDS011;38103;42.776;23.112;2022-10-26T15:25:48;7.95;;;2.30;;
52104;SDS011;38103;42.776;23.112;2022-10-26T15:28:21;6.60;;;2.15;;
52104;SDS011;38103;42.776;23.112;2022-10-26T15:31:07;5.57;;;1.85;;
52104;SDS011;38103;42.776;23.112;2022-10-26T15:36:21;7.10;;;2.38;;
52104;SDS011;38103;42.776;23.112;2022-10-26T15:38:48;7.50;;;2.30;;
52104;SDS011;38103;42.776;23.112;2022-10-26T15:43:55;9.23;;;2.30;;
52104;SDS011;38103;42.776;23.112;2022-10-26T15:46:22;9.95;;;2.80;;
52104;SDS011;38103;42.776;23.112;2022-10-26T15:48:52;9.48;;;2.60;;
52104;SDS011;38103;42.776;23.112;2022-10-26T15:51:19;9.65;;;2.65;;
52104;SDS011;38103;42.776;23.112;2022-10-26T15:53:45;7.32;;;2.20;;
52104;SDS011;38103;42.776;23.112;2022-10-26T15:56:16;7.45;;;2.50;;
52104;SDS011;38103;42.776;23.112;2022-10-26T15:58:42;8.05;;;2.50;;
52104;SDS011;38103;42.776;23.112;2022-10-26T16:01:11;7.85;;;2.58;;
52104;SDS011;38103;42.776;23.112;2022-10-26T16:03:43;9.20;;;2.80;;
52104;SDS011;38103;42.776;23.112;2022-10-26T16:06:30;9.13;;;2.88;;
52104;SDS011;38103;42.776;23.112;2022-10-26T16:08:56;8.30;;;2.60;;
52104;SDS011;38103;42.776;23.112;2022-10-26T16:11:24;8.85;;;2.70;;
52104;SDS011;38103;42.776;23.112;2022-10-26T16:13:50;7.15;;;2.40;;
52104;SDS011;38103;42.776;23.112;2022-10-26T16:16:16;8.63;;;2.90;;
52104;SDS011;38103;42.776;23.112;2022-10-26T16:18:42;7.50;;;2.53;;
52104;SDS011;38103;42.776;23.112;2022-10-26T16:21:12;11.05;;;2.80;;
52104;SDS011;38103;42.776;23.112;2022-10-26T16:23:39;8.98;;;2.72;;
52104;SDS011;38103;42.776;23.112;2022-10-26T16:26:05;8.57;;;2.70;;
52104;SDS011;38103;42.776;23.112;2022-10-26T16:28:31;8.45;;;2.50;;
52104;SDS011;38103;42.776;23.112;2022-10-26T16:30:58;8.38;;;2.80;;
52104;SDS011;38103;42.776;23.112;2022-10-26T16:33:28;8.60;;;2.70;;
52104;SDS011;38103;42.776;23.112;2022-10-26T16:35:54;9.52;;;2.80;;
52104;SDS011;38103;42.776;23.112;2022-10-26T16:38:21;10.73;;;3.00;;
52104;SDS011;38103;42.776;23.112;2022-10-26T16:40:46;8.20;;;2.72;;
52104;SDS011;38103;42.776;23.112;2022-10-26T16:43:12;10.57;;;2.88;;
52104;SDS011;38103;42.776;23.112;2022-10-26T16:45:38;10.10;;;3.63;;
52104;SDS011;38103;42.776;23.112;2022-10-26T16:48:04;9.23;;;3.40;;
52104;SDS011;38103;42.776;23.112;2022-10-26T16:50:34;11.15;;;3.50;;
52104;SDS011;38103;42.776;23.112;2022-10-26T16:52:59;10.25;;;3.42;;
52104;SDS011;38103;42.776;23.112;2022-10-26T16:55:25;11.00;;;3.40;;
52104;SDS011;38103;42.776;23.112;2022-10-26T16:57:50;9.10;;;3.25;;
52104;SDS011;38103;42.776;23.112;2022-10-26T17:00:16;10.35;;;3.13;;
52104;SDS011;38103;42.776;23.112;2022-10-26T17:02:41;11.60;;;3.45;;
52104;SDS011;38103;42.776;23.112;2022-10-26T17:05:06;9.07;;;3.00;;
52104;SDS011;38103;42.776;23.112;2022-10-26T17:07:33;9.20;;;3.13;;
52104;SDS011;38103;42.776;23.112;2022-10-26T17:09:59;13.70;;;3.50;;
52104;SDS011;38103;42.776;23.112;2022-10-26T17:12:24;8.50;;;2.90;;
52104;SDS011;38103;42.776;23.112;2022-10-26T17:14:50;16.30;;;5.00;;
52104;SDS011;38103;42.776;23.112;2022-10-26T17:17:15;11.70;;;4.60;;
52104;SDS011;38103;42.776;23.112;2022-10-26T17:19:41;11.90;;;4.32;;
52104;SDS011;38103;42.776;23.112;2022-10-26T17:22:06;10.95;;;4.13;;
52104;SDS011;38103;42.776;23.112;2022-10-26T17:24:31;11.68;;;4.68;;
52104;SDS011;38103;42.776;23.112;2022-10-26T17:26:57;14.77;;;5.28;;
52104;SDS011;38103;42.776;23.112;2022-10-26T17:29:22;14.20;;;5.50;;